createdAt,value
2023-03-17T00:01:55.998Z,7.30
2023-03-17T00:04:24.577Z,7.30
2023-03-17T00:06:53.098Z,7.40
2023-03-17T00:09:21.637Z,7.50
2023-03-17T00:11:49.202Z,7.60
2023-03-17T00:14:16.764Z,7.60
2023-03-17T00:16:48.818Z,7.60
2023-03-17T00:19:37.389Z,7.50
2023-03-17T00:22:06.166Z,7.50
2023-03-17T00:24:33.717Z,7.50
2023-03-17T00:27:01.211Z,7.50
2023-03-17T00:29:28.161Z,7.40
2023-03-17T00:31:57.363Z,7.50
2023-03-17T00:34:24.255Z,7.70
2023-03-17T00:36:51.757Z,7.80
2023-03-17T00:39:19.046Z,7.90
2023-03-17T00:44:12.857Z,7.80
2023-03-17T00:46:41.793Z,7.80
2023-03-17T00:49:25.251Z,7.60
2023-03-17T00:51:52.858Z,7.50
2023-03-17T00:54:20.923Z,7.30
2023-03-17T00:56:49.859Z,7.30
2023-03-17T00:59:26.158Z,7.20
2023-03-17T01:01:53.824Z,7.30
2023-03-17T01:04:20.816Z,7.30
2023-03-17T01:06:49.475Z,7.40
2023-03-17T01:09:19.248Z,7.40
2023-03-17T01:11:47.096Z,7.40
2023-03-17T01:14:15.283Z,7.50
2023-03-17T01:16:42.537Z,7.60
2023-03-17T01:19:12.161Z,7.60
2023-03-17T01:21:39.163Z,7.70
2023-03-17T01:24:06.792Z,7.70
2023-03-17T01:26:33.796Z,7.60
2023-03-17T01:29:00.694Z,7.60
2023-03-17T01:31:30.836Z,7.50
2023-03-17T01:33:57.987Z,7.40
2023-03-17T01:36:24.857Z,7.40
2023-03-17T01:38:51.732Z,7.50
2023-03-17T01:41:20.824Z,7.60
2023-03-17T01:43:47.953Z,7.70
2023-03-17T01:46:34.203Z,7.70
2023-03-17T01:49:19.507Z,7.80
2023-03-17T01:52:17.954Z,7.80
2023-03-17T01:54:46.275Z,7.80
2023-03-17T01:57:23.312Z,7.80
2023-03-17T01:59:55.560Z,7.80
2023-03-17T02:02:31.354Z,7.80
2023-03-17T02:04:58.972Z,7.70
2023-03-17T02:07:30.023Z,7.80
2023-03-17T02:09:58.170Z,7.90
2023-03-17T02:12:27.910Z,7.90
2023-03-17T02:14:55.195Z,8.10
2023-03-17T02:17:24.101Z,8.20
2023-03-17T02:19:51.671Z,8.30
2023-03-17T02:22:19.674Z,8.40
2023-03-17T02:24:55.857Z,8.50
2023-03-17T02:27:31.248Z,8.40
2023-03-17T02:29:59.849Z,8.40
2023-03-17T02:32:27.703Z,8.40
2023-03-17T02:34:54.926Z,8.40
2023-03-17T02:37:21.789Z,8.40
2023-03-17T02:39:48.661Z,8.40
2023-03-17T02:42:15.482Z,8.30
2023-03-17T02:44:42.518Z,8.30
2023-03-17T02:47:09.689Z,8.40
2023-03-17T02:49:38.578Z,8.30
2023-03-17T02:52:05.697Z,8.20
2023-03-17T02:54:32.656Z,8.00
2023-03-17T02:57:00.692Z,7.80
2023-03-17T02:59:27.696Z,7.70
2023-03-17T03:01:56.229Z,7.70
2023-03-17T03:04:24.515Z,7.60
2023-03-17T03:06:51.720Z,7.60
2023-03-17T03:09:18.619Z,7.60
2023-03-17T03:11:46.649Z,7.60
2023-03-17T03:14:14.281Z,7.50
2023-03-17T03:16:41.370Z,7.50
2023-03-17T03:19:08.243Z,7.70
2023-03-17T03:21:36.735Z,7.80
2023-03-17T03:24:04.391Z,8.10
2023-03-17T03:26:31.910Z,8.30
2023-03-17T03:29:00.111Z,8.40
2023-03-17T03:31:27.825Z,8.40
2023-03-17T03:33:55.272Z,8.50
2023-03-17T03:36:23.430Z,8.50
2023-03-17T03:38:50.485Z,8.50
2023-03-17T03:41:17.660Z,8.50
2023-03-17T03:43:45.016Z,8.60
2023-03-17T03:46:11.983Z,8.60
2023-03-17T03:48:38.884Z,8.50
2023-03-17T03:51:06.108Z,8.50
2023-03-17T03:53:33.012Z,8.40
2023-03-17T03:55:59.927Z,8.30
2023-03-17T03:58:26.826Z,8.20
2023-03-17T04:00:53.750Z,8.10
2023-03-17T04:03:20.717Z,8.10
2023-03-17T04:05:47.608Z,8.20
2023-03-17T04:08:14.509Z,8.20
2023-03-17T04:10:42.072Z,8.20
2023-03-17T04:13:08.931Z,8.10
2023-03-17T04:15:35.894Z,8.00
2023-03-17T04:18:02.791Z,7.90
2023-03-17T04:20:30.028Z,7.80
2023-03-17T04:22:57.422Z,7.80
2023-03-17T04:25:24.247Z,7.90
2023-03-17T04:27:51.064Z,7.90
2023-03-17T04:30:18.830Z,8.00
2023-03-17T04:32:46.597Z,8.00
2023-03-17T04:35:16.170Z,8.10
2023-03-17T04:37:43.306Z,8.00
2023-03-17T04:40:12.160Z,8.00
2023-03-17T04:42:39.258Z,8.00
2023-03-17T04:45:07.244Z,7.90
2023-03-17T04:47:34.239Z,7.90
2023-03-17T04:50:01.636Z,8.00
2023-03-17T04:52:28.604Z,8.00
2023-03-17T04:54:55.473Z,7.90
2023-03-17T04:57:22.773Z,8.00
2023-03-17T04:59:49.663Z,8.00
2023-03-17T05:02:16.560Z,8.00
2023-03-17T05:04:44.931Z,7.90
2023-03-17T05:07:14.718Z,7.90
2023-03-17T05:09:42.031Z,7.80
2023-03-17T05:12:10.166Z,7.80
2023-03-17T05:14:37.784Z,7.90
2023-03-17T05:17:04.827Z,8.00
2023-03-17T05:19:31.842Z,8.00
2023-03-17T05:21:58.798Z,8.00
2023-03-17T05:24:25.891Z,8.00
2023-03-17T05:26:52.903Z,8.00
2023-03-17T05:29:20.129Z,7.90
2023-03-17T05:31:47.685Z,7.80
2023-03-17T05:34:16.093Z,7.80
2023-03-17T05:36:43.651Z,7.70
2023-03-17T05:39:11.235Z,7.70
2023-03-17T05:41:39.251Z,7.70
2023-03-17T05:44:06.675Z,7.60
2023-03-17T05:46:33.673Z,7.60
2023-03-17T05:49:00.909Z,7.60
2023-03-17T05:51:27.777Z,7.60
2023-03-17T05:53:54.721Z,7.50
2023-03-17T05:56:22.014Z,7.50
2023-03-17T05:58:48.947Z,7.50
2023-03-17T06:01:15.812Z,7.50
2023-03-17T06:03:42.829Z,7.60
2023-03-17T06:06:09.825Z,7.80
2023-03-17T06:08:36.673Z,8.00
2023-03-17T06:11:03.537Z,8.30
2023-03-17T06:13:30.533Z,8.40
2023-03-17T06:15:57.687Z,8.60
2023-03-17T06:18:24.658Z,8.60
2023-03-17T06:20:51.718Z,8.70
2023-03-17T06:23:19.015Z,8.80
2023-03-17T06:25:46.427Z,8.80
2023-03-17T06:28:13.463Z,8.80
2023-03-17T06:30:42.734Z,8.80
2023-03-17T06:33:10.244Z,8.80
2023-03-17T06:35:37.446Z,8.90
2023-03-17T06:38:05.284Z,9.00
2023-03-17T06:40:32.355Z,9.00
2023-03-17T06:42:59.640Z,9.10
2023-03-17T06:45:26.818Z,9.20
2023-03-17T06:47:53.841Z,9.30
2023-03-17T06:50:21.134Z,9.40
2023-03-17T06:52:48.121Z,9.60
2023-03-17T06:55:15.902Z,9.80
2023-03-17T06:57:42.914Z,10.10
2023-03-17T07:00:12.670Z,10.40
2023-03-17T07:02:39.828Z,10.70
2023-03-17T07:05:08.183Z,11.00
2023-03-17T07:07:35.705Z,11.30
2023-03-17T07:10:03.466Z,11.80
2023-03-17T07:12:30.480Z,12.30
2023-03-17T07:14:58.198Z,12.70
2023-03-17T07:17:25.572Z,13.10
2023-03-17T07:19:52.600Z,13.50
2023-03-17T07:22:19.620Z,13.90
2023-03-17T07:24:49.117Z,14.20
2023-03-17T07:27:16.735Z,14.30
2023-03-17T07:29:43.675Z,14.40
2023-03-17T07:32:11.801Z,14.70
2023-03-17T07:34:38.933Z,15.30
2023-03-17T07:37:07.020Z,16.10
2023-03-17T07:39:34.067Z,16.70
2023-03-17T07:42:01.037Z,17.30
2023-03-17T07:44:28.881Z,17.70
2023-03-17T07:46:56.684Z,18.00
2023-03-17T07:49:40.026Z,18.50
2023-03-17T07:52:08.595Z,19.10
2023-03-17T07:54:36.350Z,19.90
2023-03-17T07:57:03.979Z,20.90
2023-03-17T07:59:31.746Z,21.10
2023-03-17T08:02:00.190Z,21.30
2023-03-17T08:04:27.730Z,21.60
2023-03-17T08:06:54.701Z,22.00
2023-03-17T08:09:24.830Z,22.20
2023-03-17T08:11:51.880Z,21.20
2023-03-17T08:14:18.919Z,21.80
2023-03-17T08:16:45.955Z,21.90
2023-03-17T08:19:12.965Z,21.60
2023-03-17T08:21:39.856Z,21.50
2023-03-17T08:24:07.066Z,21.00
2023-03-17T08:26:34.351Z,21.00
2023-03-17T08:29:01.548Z,21.10
2023-03-17T08:31:29.218Z,21.00
2023-03-17T08:33:59.572Z,21.20
2023-03-17T08:36:26.538Z,20.60
2023-03-17T08:38:53.741Z,20.40
2023-03-17T08:41:23.818Z,20.70
2023-03-17T08:43:51.776Z,20.80
2023-03-17T08:46:28.291Z,20.70
2023-03-17T08:48:56.778Z,20.30
2023-03-17T08:51:25.567Z,19.90
2023-03-17T08:53:53.402Z,19.10
2023-03-17T08:56:20.728Z,18.90
2023-03-17T08:58:48.556Z,19.30
2023-03-17T09:01:16.018Z,19.80
2023-03-17T09:03:43.932Z,20.10
2023-03-17T09:06:12.407Z,20.10
2023-03-17T09:08:44.582Z,20.10
2023-03-17T09:11:14.828Z,20.20
2023-03-17T09:13:42.331Z,20.50
2023-03-17T09:16:10.077Z,20.60
2023-03-17T09:18:37.422Z,20.40
2023-03-17T09:21:05.224Z,20.20
2023-03-17T09:23:32.756Z,19.90
2023-03-17T09:26:00.302Z,19.70
2023-03-17T09:28:27.319Z,19.60
2023-03-17T09:30:59.603Z,19.80
2023-03-17T09:33:29.289Z,19.50
2023-03-17T09:35:59.707Z,19.50
2023-03-17T09:38:27.785Z,19.80
2023-03-17T09:41:26.038Z,20.60
2023-03-17T09:44:46.186Z,20.50
2023-03-17T09:47:54.964Z,20.40
2023-03-17T09:50:39.943Z,20.40
2023-03-17T09:53:18.551Z,20.40
2023-03-17T09:55:51.811Z,20.00
2023-03-17T09:58:25.136Z,19.80
2023-03-17T10:00:52.334Z,19.70
2023-03-17T10:03:20.527Z,19.90
2023-03-17T10:05:47.577Z,20.20
2023-03-17T10:08:32.190Z,20.30
2023-03-17T10:11:14.981Z,20.60
2023-03-17T10:14:14.974Z,20.60
2023-03-17T10:16:51.866Z,20.60
2023-03-17T10:19:32.638Z,20.60
2023-03-17T10:22:38.538Z,20.60
2023-03-17T10:25:23.676Z,21.00
2023-03-17T10:27:58.208Z,21.10
2023-03-17T10:30:26.576Z,20.80
2023-03-17T10:33:29.632Z,20.70
2023-03-17T10:35:56.978Z,20.60
2023-03-17T10:38:24.494Z,20.50
2023-03-17T10:41:05.734Z,20.30
2023-03-17T10:43:47.280Z,20.00
2023-03-17T10:46:22.317Z,19.90
2023-03-17T10:48:58.288Z,19.90
2023-03-17T10:51:32.441Z,20.10
2023-03-17T10:54:17.716Z,20.00
2023-03-17T10:56:48.572Z,19.60
2023-03-17T10:59:20.938Z,19.30
2023-03-17T11:01:54.102Z,19.20
2023-03-17T11:04:47.157Z,19.00
2023-03-17T11:07:19.329Z,18.90
2023-03-17T11:09:50.940Z,18.70
2023-03-17T11:12:41.425Z,18.60
2023-03-17T11:15:17.823Z,18.80
2023-03-17T11:18:03.581Z,18.80
2023-03-17T11:20:50.438Z,18.70
2023-03-17T11:23:41.438Z,18.80
2023-03-17T11:26:51.685Z,19.00
2023-03-17T11:29:44.686Z,19.00
2023-03-17T11:32:37.169Z,19.00
2023-03-17T11:35:28.809Z,19.20
2023-03-17T11:38:29.845Z,19.20
2023-03-17T11:41:14.872Z,19.40
2023-03-17T11:43:59.702Z,19.60
2023-03-17T11:46:42.848Z,19.70
2023-03-17T11:49:22.855Z,19.80
2023-03-17T11:52:28.758Z,20.10
2023-03-17T11:55:04.969Z,20.10
2023-03-17T11:57:42.996Z,20.10
2023-03-17T12:00:35.637Z,19.60
2023-03-17T12:03:46.690Z,19.30
2023-03-17T12:06:26.189Z,18.80
2023-03-17T12:09:16.152Z,18.60
2023-03-17T12:11:45.325Z,18.70
2023-03-17T12:14:42.810Z,19.00
2023-03-17T12:17:55.864Z,18.90
2023-03-17T12:20:34.126Z,18.70
2023-03-17T12:23:19.248Z,18.70
2023-03-17T12:25:58.291Z,19.00
2023-03-17T12:28:31.219Z,19.30
2023-03-17T12:31:25.997Z,19.50
2023-03-17T12:34:22.616Z,19.70
2023-03-17T12:36:51.520Z,19.20
2023-03-17T12:39:33.676Z,18.70
2023-03-17T12:42:35.793Z,18.60
2023-03-17T12:45:33.459Z,18.70
2023-03-17T12:48:19.182Z,18.60
2023-03-17T12:51:14.978Z,18.30
2023-03-17T12:53:44.933Z,18.00
2023-03-17T12:56:28.756Z,17.90
2023-03-17T12:59:03.110Z,17.80
2023-03-17T13:01:59.785Z,17.80
2023-03-17T13:04:32.982Z,17.80
2023-03-17T13:07:12.644Z,18.00
2023-03-17T13:10:13.935Z,18.00
2023-03-17T13:13:06.514Z,17.90
2023-03-17T13:15:55.252Z,18.00
2023-03-17T13:18:46.711Z,18.10
2023-03-17T13:21:18.872Z,18.00
2023-03-17T13:23:54.927Z,17.90
2023-03-17T13:26:42.795Z,17.80
2023-03-17T13:29:25.969Z,17.80
2023-03-17T13:32:13.480Z,17.80
2023-03-17T13:34:53.174Z,17.90
2023-03-17T13:37:30.491Z,18.00
2023-03-17T13:40:23.086Z,17.90
2023-03-17T13:43:32.019Z,18.00
2023-03-17T13:46:22.483Z,18.10
2023-03-17T13:48:50.181Z,18.20
2023-03-17T13:51:25.891Z,18.20
2023-03-17T13:53:59.053Z,18.20
2023-03-17T13:57:15.941Z,18.10
2023-03-17T14:00:12.110Z,18.10
2023-03-17T14:02:40.954Z,18.10
2023-03-17T14:05:30.866Z,18.00
2023-03-17T14:08:04.146Z,18.00
2023-03-17T14:10:33.661Z,17.90
2023-03-17T14:13:22.738Z,17.80
2023-03-17T14:16:07.076Z,17.90
2023-03-17T14:18:40.389Z,17.80
2023-03-17T14:21:19.428Z,17.90
2023-03-17T14:24:04.356Z,18.00
2023-03-17T14:26:33.020Z,18.10
2023-03-17T14:29:01.372Z,18.10
2023-03-17T14:31:29.824Z,18.00
2023-03-17T14:34:00.254Z,18.10
2023-03-17T14:36:34.489Z,18.10
2023-03-17T14:39:01.363Z,18.00
2023-03-17T14:41:28.937Z,18.00
2023-03-17T14:44:00.730Z,17.80
2023-03-17T14:46:37.162Z,17.60
2023-03-17T14:49:17.672Z,17.50
2023-03-17T14:51:45.420Z,17.40
2023-03-17T14:54:20.692Z,17.50
2023-03-17T14:56:51.892Z,17.40
2023-03-17T14:59:30.341Z,17.30
2023-03-17T15:02:00.006Z,17.40
2023-03-17T15:04:32.714Z,17.30
2023-03-17T15:07:05.295Z,17.30
2023-03-17T15:09:37.790Z,17.30
2023-03-17T15:12:13.168Z,17.30
2023-03-17T15:14:41.625Z,17.40
2023-03-17T15:17:19.082Z,17.50
2023-03-17T15:19:49.017Z,17.60
2023-03-17T15:22:36.050Z,17.60
2023-03-17T15:25:39.622Z,17.60
2023-03-17T15:28:13.977Z,17.50
2023-03-17T15:30:47.698Z,17.40
2023-03-17T15:33:30.698Z,17.20
2023-03-17T15:36:00.188Z,17.20
2023-03-17T15:38:27.564Z,17.10
2023-03-17T15:40:54.876Z,17.10
2023-03-17T15:43:22.103Z,17.10
2023-03-17T15:45:57.989Z,17.10
2023-03-17T15:48:30.027Z,17.20
2023-03-17T15:51:00.005Z,17.10
2023-03-17T15:53:27.420Z,17.20
2023-03-17T15:55:54.325Z,17.10
2023-03-17T15:58:21.269Z,17.00
2023-03-17T16:00:52.687Z,16.90
2023-03-17T16:03:34.009Z,16.90
2023-03-17T16:06:03.384Z,16.80
2023-03-17T16:08:30.468Z,16.80
2023-03-17T16:10:57.439Z,16.70
2023-03-17T16:13:24.298Z,16.70
2023-03-17T16:15:56.412Z,16.60
2023-03-17T16:18:33.203Z,16.50
2023-03-17T16:21:01.458Z,16.50
2023-03-17T16:23:31.871Z,16.40
2023-03-17T16:26:11.773Z,16.40
2023-03-17T16:28:41.577Z,16.30
2023-03-17T16:31:25.704Z,16.20
2023-03-17T16:33:55.875Z,16.20
2023-03-17T16:36:24.470Z,16.10
2023-03-17T16:38:51.742Z,16.10
2023-03-17T16:41:25.608Z,16.00
2023-03-17T16:43:58.304Z,16.00
2023-03-17T16:46:27.095Z,15.90
2023-03-17T16:48:54.185Z,15.90
2023-03-17T16:51:21.248Z,15.80
2023-03-17T16:53:48.154Z,15.80
2023-03-17T16:56:18.299Z,15.70
2023-03-17T16:58:45.976Z,15.70
2023-03-17T17:01:19.896Z,15.70
2023-03-17T17:03:46.859Z,15.70
2023-03-17T17:06:16.958Z,15.80
2023-03-17T17:08:45.115Z,15.80
2023-03-17T17:11:13.594Z,15.70
2023-03-17T17:13:42.392Z,15.70
2023-03-17T17:16:42.110Z,15.80
2023-03-17T17:19:17.017Z,15.70
2023-03-17T17:21:44.670Z,15.60
2023-03-17T17:24:13.185Z,15.60
2023-03-17T17:26:40.613Z,15.50
2023-03-17T17:29:07.918Z,15.40
2023-03-17T17:31:37.694Z,15.40
2023-03-17T17:34:05.066Z,15.40
2023-03-17T17:36:32.229Z,15.40
2023-03-17T17:38:59.147Z,15.40
2023-03-17T17:41:26.071Z,15.30
2023-03-17T17:43:53.987Z,15.30
2023-03-17T17:46:22.737Z,15.20
2023-03-17T17:48:50.163Z,15.10
2023-03-17T17:51:17.046Z,15.10
2023-03-17T17:53:44.199Z,15.10
2023-03-17T17:56:16.060Z,15.00
2023-03-17T17:58:43.813Z,15.00
2023-03-17T18:01:13.565Z,15.00
2023-03-17T18:03:42.985Z,15.00
2023-03-17T18:06:10.369Z,15.00
2023-03-17T18:08:37.536Z,14.90
2023-03-17T18:11:04.533Z,14.80
2023-03-17T18:13:31.808Z,14.70
2023-03-17T18:15:58.794Z,14.60
2023-03-17T18:18:25.874Z,14.50
2023-03-17T18:20:56.425Z,14.50
2023-03-17T18:23:23.448Z,14.40
2023-03-17T18:25:50.429Z,14.40
2023-03-17T18:28:17.483Z,14.30
2023-03-17T18:30:46.525Z,14.30
2023-03-17T18:33:19.975Z,14.20
2023-03-17T18:35:49.560Z,14.10
2023-03-17T18:38:16.783Z,14.00
2023-03-17T18:40:44.128Z,14.00
2023-03-17T18:43:11.517Z,13.90
2023-03-17T18:45:38.497Z,13.90
2023-03-17T18:48:05.544Z,13.90
2023-03-17T18:50:33.229Z,13.80
2023-03-17T18:53:00.410Z,13.80
2023-03-17T18:55:27.381Z,13.70
2023-03-17T18:57:55.003Z,13.60
2023-03-17T19:00:25.254Z,13.50
2023-03-17T19:02:52.505Z,13.40
2023-03-17T19:05:19.723Z,13.30
2023-03-17T19:07:46.983Z,13.20
2023-03-17T19:10:14.384Z,13.10
2023-03-17T19:12:42.555Z,13.00
2023-03-17T19:15:10.761Z,12.90
2023-03-17T19:17:38.021Z,12.80
2023-03-17T19:20:06.340Z,12.70
2023-03-17T19:22:34.051Z,12.60
2023-03-17T19:25:01.420Z,12.50
2023-03-17T19:27:28.277Z,12.40
2023-03-17T19:29:55.395Z,12.40
2023-03-17T19:32:25.148Z,12.40
2023-03-17T19:34:52.196Z,12.40
2023-03-17T19:37:19.140Z,12.30
2023-03-17T19:39:46.046Z,12.30
2023-03-17T19:42:13.388Z,12.30
2023-03-17T19:44:40.641Z,12.30
2023-03-17T19:47:08.429Z,12.30
2023-03-17T19:49:37.445Z,12.20
2023-03-17T19:52:06.467Z,12.20
2023-03-17T19:54:33.818Z,12.10
2023-03-17T19:57:00.841Z,12.10
2023-03-17T19:59:27.733Z,12.10
2023-03-17T20:01:54.663Z,12.00
2023-03-17T20:04:23.209Z,12.00
2023-03-17T20:06:55.232Z,12.00
2023-03-17T20:09:24.811Z,12.00
2023-03-17T20:11:53.275Z,12.00
2023-03-17T20:14:20.867Z,12.00
2023-03-17T20:16:48.665Z,12.10
2023-03-17T20:19:16.406Z,12.10
2023-03-17T20:21:43.490Z,12.20
2023-03-17T20:24:12.885Z,12.20
2023-03-17T20:26:40.984Z,12.20
2023-03-17T20:29:08.644Z,12.10
2023-03-17T20:31:37.564Z,12.10
2023-03-17T20:34:05.284Z,12.00
2023-03-17T20:36:32.152Z,12.00
2023-03-17T20:38:59.291Z,12.00
2023-03-17T20:41:26.207Z,12.00
2023-03-17T20:43:53.245Z,12.00
2023-03-17T20:46:22.611Z,12.10
2023-03-17T20:48:51.622Z,12.00
2023-03-17T20:51:20.064Z,12.00
2023-03-17T20:53:49.083Z,12.10
2023-03-17T20:56:19.803Z,12.10
2023-03-17T20:58:48.501Z,12.10
2023-03-17T21:01:20.774Z,12.00
2023-03-17T21:03:48.505Z,12.10
2023-03-17T21:06:16.462Z,12.20
2023-03-17T21:08:43.607Z,12.20
2023-03-17T21:11:16.468Z,12.20
2023-03-17T21:13:44.337Z,12.20
2023-03-17T21:16:24.341Z,12.20
2023-03-17T21:18:52.331Z,12.10
2023-03-17T21:21:20.746Z,12.10
2023-03-17T21:23:48.347Z,12.10
2023-03-17T21:26:15.634Z,12.20
2023-03-17T21:28:43.066Z,12.20
2023-03-17T21:31:13.003Z,12.10
2023-03-17T21:33:40.583Z,12.10
2023-03-17T21:36:08.101Z,12.20
2023-03-17T21:38:35.807Z,12.20
2023-03-17T21:41:28.583Z,12.20
2023-03-17T21:43:55.492Z,12.30
2023-03-17T21:46:22.312Z,12.30
2023-03-17T21:48:49.700Z,12.30
2023-03-17T21:51:16.571Z,12.20
2023-03-17T21:53:43.890Z,12.30
2023-03-17T21:56:12.532Z,12.30
2023-03-17T21:58:39.963Z,12.20
2023-03-17T22:01:07.984Z,12.20
2023-03-17T22:03:36.669Z,12.20
2023-03-17T22:06:05.503Z,12.20
2023-03-17T22:08:32.861Z,12.10
2023-03-17T22:11:00.207Z,12.10
2023-03-17T22:13:27.607Z,12.10
2023-03-17T22:15:58.388Z,12.10
2023-03-17T22:18:25.490Z,12.10
2023-03-17T22:20:56.344Z,12.10
2023-03-17T22:23:24.759Z,12.10
2023-03-17T22:25:52.488Z,12.10
2023-03-17T22:28:19.872Z,12.10
2023-03-17T22:30:47.491Z,12.10
2023-03-17T22:33:15.136Z,12.10
2023-03-17T22:35:42.271Z,12.00
2023-03-17T22:38:10.566Z,11.90
2023-03-17T22:40:37.466Z,11.90
2023-03-17T22:43:04.702Z,11.80
2023-03-17T22:45:31.594Z,11.80
2023-03-17T22:47:58.495Z,11.70
2023-03-17T22:50:25.500Z,11.60
2023-03-17T22:52:52.661Z,11.50
2023-03-17T22:55:19.568Z,11.40
2023-03-17T22:57:46.891Z,11.30
2023-03-17T23:00:17.243Z,11.20
2023-03-17T23:02:46.474Z,11.10
2023-03-17T23:05:14.668Z,11.00
2023-03-17T23:07:50.260Z,11.00
2023-03-17T23:10:24.709Z,10.90
2023-03-17T23:12:52.292Z,10.90
2023-03-17T23:15:20.141Z,10.90
2023-03-17T23:17:47.571Z,10.80
2023-03-17T23:20:15.269Z,10.80
2023-03-17T23:22:42.263Z,10.80
2023-03-17T23:25:09.772Z,10.80
2023-03-17T23:27:36.805Z,10.70
2023-03-17T23:30:16.964Z,10.70
2023-03-17T23:32:45.547Z,10.80
2023-03-17T23:35:16.769Z,10.80
2023-03-17T23:37:43.871Z,10.90
2023-03-17T23:40:13.757Z,10.90
2023-03-17T23:42:41.805Z,10.90
2023-03-17T23:45:09.456Z,10.90
2023-03-17T23:47:37.276Z,10.90
2023-03-17T23:50:05.311Z,11.00
2023-03-17T23:52:32.771Z,11.00
2023-03-17T23:55:01.114Z,11.00
2023-03-17T23:57:28.077Z,11.10
2023-03-17T23:59:55.023Z,11.00
